Time;durP1;ratioP1;P1;durP2;ratioP2;P2;SDS_P1;SDS_P2;PMS_P1;PMS_P2;Temp;Humidity;BMP_temperature;BMP_pressure;BME280_temperature;BME280_humidity;BME280_pressure;Samples;Min_cycle;Max_cycle;Signal;HPM_P1;HPM_P2
2023/01/31 00:00:26;;;;;;;6.70;3.25;;;;;;;0.64;100.00;96486.69;1046874;28;20070;-69
2023/01/31 00:01:04;;;;;;;5.97;3.25;;;;;;;0.63;100.00;96484.28;1051113;28;20630;-67
2023/01/31 00:01:36;;;;;;;8.65;2.92;;;;;;;0.58;100.00;96477.09;1040642;28;20064;-67
2023/01/31 00:02:07;;;;;;;6.55;3.42;;;;;;;0.59;100.00;96478.69;1038331;28;20272;-67
2023/01/31 00:02:37;;;;;;;6.82;3.47;;;;;;;0.63;100.00;96490.22;1038505;28;20267;-67
2023/01/31 00:03:08;;;;;;;9.13;3.33;;;;;;;0.56;100.00;96468.69;1042457;28;20024;-68
2023/01/31 00:03:38;;;;;;;7.78;3.20;;;;;;;0.66;100.00;96491.66;1036554;28;20026;-66
2023/01/31 00:04:11;;;;;;;5.70;2.83;;;;;;;0.60;100.00;96469.94;1026381;28;20448;-68
2023/01/31 00:04:41;;;;;;;7.85;3.20;;;;;;;0.69;100.00;96476.59;1034655;28;20026;-67
2023/01/31 00:05:12;;;;;;;5.53;3.05;;;;;;;0.70;100.00;96491.13;1037944;28;20299;-68
2023/01/31 00:05:42;;;;;;;7.47;3.33;;;;;;;0.61;100.00;96475.94;1034897;28;20021;-67
2023/01/31 00:06:22;;;;;;;7.07;3.45;;;;;;;0.68;100.00;96482.75;1034619;28;20032;-67
2023/01/31 00:06:53;;;;;;;12.94;4.08;;;;;;;0.67;100.00;96486.34;1036835;28;20576;-69
2023/01/31 00:07:23;;;;;;;10.07;3.78;;;;;;;0.66;100.00;96482.13;1044227;28;20162;-69
2023/01/31 00:07:54;;;;;;;12.70;4.18;;;;;;;0.70;100.00;96487.72;1047965;28;20055;-69
2023/01/31 00:08:24;;;;;;;7.72;3.05;;;;;;;0.68;100.00;96481.97;1044621;28;20079;-68
2023/01/31 00:08:56;;;;;;;6.45;3.33;;;;;;;0.74;100.00;96490.75;1038557;28;20021;-69
2023/01/31 00:09:26;;;;;;;6.74;3.42;;;;;;;0.74;100.00;96501.06;1034444;28;20029;-68
2023/01/31 00:09:57;;;;;;;7.57;3.28;;;;;;;0.74;100.00;96480.41;1035518;28;20026;-68
2023/01/31 00:10:27;;;;;;;7.32;3.33;;;;;;;0.74;100.00;96485.59;1037665;28;20430;-68
2023/01/31 00:11:00;;;;;;;4.15;2.63;;;;;;;0.70;100.00;96475.63;1039628;28;20114;-68
2023/01/31 00:11:31;;;;;;;5.68;3.10;;;;;;;0.75;100.00;96475.09;1036321;28;20598;-68
2023/01/31 00:12:01;;;;;;;9.05;3.08;;;;;;;0.69;100.00;96478.38;1036038;28;20269;-70
2023/01/31 00:12:32;;;;;;;8.55;3.42;;;;;;;0.75;100.00;96484.63;1039467;28;20542;-68
2023/01/31 00:13:02;;;;;;;4.32;2.92;;;;;;;0.77;100.00;96480.06;1038587;28;20056;-67
2023/01/31 00:13:32;;;;;;;6.90;3.50;;;;;;;0.77;100.00;96486.03;1038721;28;20009;-69
2023/01/31 00:14:04;;;;;;;6.50;3.35;;;;;;;0.72;100.00;96480.59;1040646;28;20040;-71
2023/01/31 00:14:34;;;;;;;9.20;3.50;;;;;;;0.73;100.00;96474.44;1034856;28;20114;-70
2023/01/31 00:15:05;;;;;;;8.57;3.35;;;;;;;0.73;100.00;96487.38;1030181;28;20320;-69
2023/01/31 00:15:35;;;;;;;6.93;3.70;;;;;;;0.71;100.00;96489.34;1031484;28;20634;-69
2023/01/31 00:16:07;;;;;;;6.55;3.42;;;;;;;0.69;100.00;96484.34;1038280;28;20029;-70
2023/01/31 00:16:37;;;;;;;7.65;3.28;;;;;;;0.69;100.00;96499.84;1034347;28;20025;-69
2023/01/31 00:17:07;;;;;;;9.75;3.63;;;;;;;0.74;100.00;96481.25;1038392;28;20271;-68
2023/01/31 00:17:38;;;;;;;8.60;3.03;;;;;;;0.74;100.00;96488.16;1034171;28;20014;-70
2023/01/31 00:18:08;;;;;;;12.25;4.70;;;;;;;0.73;100.00;96481.41;1038083;28;20028;-69
2023/01/31 00:18:39;;;;;;;6.18;3.47;;;;;;;0.74;100.00;96495.91;1038660;28;20028;-68
2023/01/31 00:19:09;;;;;;;5.78;3.42;;;;;;;0.72;100.00;96490.16;1042359;28;20048;-70
2023/01/31 00:19:40;;;;;;;7.32;3.95;;;;;;;0.74;100.00;96485.59;1042805;28;20039;-70
2023/01/31 00:20:11;;;;;;;7.43;3.30;;;;;;;0.70;100.00;96477.41;1038354;28;20546;-70
2023/01/31 00:20:41;;;;;;;6.90;2.78;;;;;;;0.71;100.00;96489.34;1038178;28;20021;-70
2023/01/31 00:21:13;;;;;;;8.13;3.38;;;;;;;0.71;100.00;96476.44;1038699;28;20676;-70
2023/01/31 00:21:44;;;;;;;4.35;2.70;;;;;;;0.69;100.00;96468.84;1038256;28;20032;-69
2023/01/31 00:22:14;;;;;;;8.45;3.30;;;;;;;0.74;100.00;96480.41;1038722;28;20764;-69
2023/01/31 00:22:45;;;;;;;5.60;3.28;;;;;;;0.75;100.00;96476.88;1038450;28;20018;-69
2023/01/31 00:23:15;;;;;;;4.97;3.25;;;;;;;0.73;100.00;96484.00;1038351;28;20029;-69
2023/01/31 00:23:46;;;;;;;6.15;3.15;;;;;;;0.66;100.00;96474.38;1047005;28;20037;-69
2023/01/31 00:24:16;;;;;;;7.43;3.67;;;;;;;0.71;100.00;96484.19;1046591;28;20024;-71
2023/01/31 00:24:47;;;;;;;9.88;3.50;;;;;;;0.72;100.00;96477.22;1046564;28;20016;-69
2023/01/31 00:25:17;;;;;;;5.18;3.35;;;;;;;0.75;100.00;96487.19;1046847;28;20051;-69
2023/01/31 00:25:48;;;;;;;6.97;3.25;;;;;;;0.67;100.00;96470.00;1046404;28;20099;-70
2023/01/31 00:26:20;;;;;;;7.18;3.88;;;;;;;0.74;100.00;96486.41;1042538;28;20391;-70
2023/01/31 00:26:55;;;;;;;8.93;3.33;;;;;;;0.75;100.00;96494.94;1042157;28;20494;-68
2023/01/31 00:27:26;;;;;;;8.65;3.67;;;;;;;0.70;100.00;96491.13;1037215;28;20927;-69
2023/01/31 00:27:57;;;;;;;4.85;3.10;;;;;;;0.68;100.00;96482.75;1042740;28;20264;-70
2023/01/31 00:28:27;;;;;;;4.97;3.28;;;;;;;0.73;100.00;96489.94;1039118;28;20673;-69
2023/01/31 00:29:02;;;;;;;5.30;2.88;;;;;;;0.70;100.00;96485.16;1038421;28;20256;-70
2023/01/31 00:29:35;;;;;;;8.35;3.55;;;;;;;0.69;100.00;96489.50;1037687;28;20465;-71
2023/01/31 00:30:07;;;;;;;4.50;2.85;;;;;;;0.74;100.00;96498.50;1030130;28;20265;-71
2023/01/31 00:30:37;;;;;;;5.53;2.97;;;;;;;0.76;100.00;96499.13;1028884;28;20266;-70
2023/01/31 00:31:09;;;;;;;9.13;3.58;;;;;;;0.74;100.00;96498.50;1034589;28;20288;-69
2023/01/31 00:31:42;;;;;;;7.28;3.30;;;;;;;0.73;100.00;96492.53;1035444;28;20112;-69
2023/01/31 00:32:12;;;;;;;6.78;3.20;;;;;;;0.76;100.00;96488.78;1042742;28;20259;-69
2023/01/31 00:32:43;;;;;;;8.32;3.45;;;;;;;0.76;100.00;96499.13;1042115;28;20255;-71
2023/01/31 00:33:13;;;;;;;4.13;2.60;;;;;;;0.78;100.00;96497.16;1038811;28;20033;-69
2023/01/31 00:33:45;;;;;;;4.10;2.55;;;;;;;0.78;100.00;96494.59;1034039;28;20427;-70
2023/01/31 00:34:15;;;;;;;10.35;3.35;;;;;;;0.78;100.00;96502.34;1035102;28;20021;-69
2023/01/31 00:34:46;;;;;;;12.35;3.80;;;;;;;0.68;100.00;96487.91;1042545;28;20633;-71
2023/01/31 00:35:16;;;;;;;5.70;3.22;;;;;;;0.71;100.00;96491.94;1042452;28;20013;-70
2023/01/31 00:35:47;;;;;;;5.93;3.22;;;;;;;0.72;100.00;96492.72;1038112;28;20025;-69
2023/01/31 00:36:19;;;;;;;4.63;3.17;;;;;;;0.73;100.00;96502.06;1042142;28;20020;-69
2023/01/31 00:36:53;;;;;;;5.20;2.80;;;;;;;0.70;100.00;96492.91;1037424;28;20014;-69
2023/01/31 00:37:28;;;;;;;4.45;2.83;;;;;;;0.68;100.00;96502.63;1034585;28;20260;-70
2023/01/31 00:37:59;;;;;;;7.18;3.65;;;;;;;0.67;100.00;96485.50;1037793;28;20294;-70
2023/01/31 00:38:30;;;;;;;7.43;3.10;;;;;;;0.65;100.00;96492.66;1038283;28;20013;-69
2023/01/31 00:39:01;;;;;;;7.13;3.33;;;;;;;0.69;100.00;96492.09;1030265;28;20057;-69
2023/01/31 00:39:31;;;;;;;6.72;2.88;;;;;;;0.72;100.00;96500.47;1031492;28;20018;-68
2023/01/31 00:40:03;;;;;;;6.00;3.75;;;;;;;0.69;100.00;96499.84;1041838;28;20760;-69
2023/01/31 00:40:33;;;;;;;6.32;3.42;;;;;;;0.64;100.00;96507.34;1042560;28;20025;-69
2023/01/31 00:41:04;;;;;;;6.43;3.10;;;;;;;0.61;100.00;96492.22;1043078;28;20780;-70
2023/01/31 00:41:35;;;;;;;7.65;3.67;;;;;;;0.68;100.00;96503.41;1042523;28;20021;-69
2023/01/31 00:42:06;;;;;;;4.18;3.10;;;;;;;0.68;100.00;96507.78;1038285;28;20022;-70
2023/01/31 00:42:39;;;;;;;5.88;3.05;;;;;;;0.67;100.00;96501.81;1042480;28;20594;-69
2023/01/31 00:43:09;;;;;;;8.15;3.20;;;;;;;0.63;100.00;96503.16;1043119;28;20032;-70
2023/01/31 00:43:40;;;;;;;9.90;2.83;;;;;;;0.66;100.00;96510.53;1042780;28;20338;-70
2023/01/31 00:44:10;;;;;;;10.25;3.97;;;;;;;0.60;100.00;96498.34;1037962;28;20043;-69
2023/01/31 00:44:41;;;;;;;4.80;3.03;;;;;;;0.67;100.00;96511.34;1040933;28;20032;-70
2023/01/31 00:45:11;;;;;;;7.07;3.10;;;;;;;0.62;100.00;96504.13;1042366;28;20021;-71
2023/01/31 00:45:44;;;;;;;9.32;3.63;;;;;;;0.64;100.00;96512.50;1038665;28;20372;-70
2023/01/31 00:46:15;;;;;;;7.57;3.15;;;;;;;0.65;100.00;96515.91;1037723;28;20037;-70
2023/01/31 00:46:46;;;;;;;7.18;3.45;;;;;;;0.67;100.00;96506.16;1034183;28;20256;-71
2023/01/31 00:47:16;;;;;;;6.43;3.33;;;;;;;0.68;100.00;96508.59;1035447;28;20845;-68
2023/01/31 00:47:47;;;;;;;8.05;3.22;;;;;;;0.52;100.00;96482.16;1038574;28;20025;-68
2023/01/31 00:48:17;;;;;;;8.95;2.88;;;;;;;0.67;100.00;96504.41;1040957;28;20029;-70
2023/01/31 00:48:48;;;;;;;5.13;3.75;;;;;;;0.68;100.00;96508.59;1042325;28;20047;-69
2023/01/31 00:49:19;;;;;;;4.68;3.03;;;;;;;0.72;100.00;96508.22;1042527;28;20020;-68
2023/01/31 00:49:49;;;;;;;4.60;2.78;;;;;;;0.67;100.00;96495.84;1043489;28;20017;-71
2023/01/31 00:50:19;;;;;;;9.43;3.15;;;;;;;0.70;100.00;96500.63;1046543;28;20017;-69
2023/01/31 00:50:50;;;;;;;7.88;3.38;;;;;;;0.68;100.00;96498.25;1042385;28;20017;-69
2023/01/31 00:51:21;;;;;;;4.50;3.20;;;;;;;0.67;100.00;96491.50;1040024;28;20033;-69
2023/01/31 00:51:51;;;;;;;6.15;3.17;;;;;;;0.69;100.00;96499.84;1042089;28;20096;-70
2023/01/31 00:52:22;;;;;;;10.05;3.80;;;;;;;0.67;100.00;96499.25;1042868;28;20043;-69
2023/01/31 00:52:52;;;;;;;7.18;4.07;;;;;;;0.69;100.00;96494.69;1046485;28;20540;-69
2023/01/31 00:53:23;;;;;;;8.23;3.42;;;;;;;0.64;100.00;96494.44;1041491;28;20036;-68
2023/01/31 00:53:53;;;;;;;7.93;3.22;;;;;;;0.62;100.00;96498.97;1042511;28;20103;-69
2023/01/31 00:54:24;;;;;;;6.03;3.50;;;;;;;0.67;100.00;96501.81;1034297;28;20024;-70
2023/01/31 00:54:54;;;;;;;9.85;3.63;;;;;;;0.67;100.00;96501.00;1028805;28;20023;-72
2023/01/31 00:55:27;;;;;;;6.53;3.00;;;;;;;0.66;100.00;96500.19;1034541;28;20389;-68
2023/01/31 00:56:03;;;;;;;6.47;3.00;;;;;;;0.60;100.00;96488.00;1041997;28;20020;-70
2023/01/31 00:56:34;;;;;;;8.10;3.30;;;;;;;0.67;100.00;96501.81;1030229;28;21060;-71
2023/01/31 00:57:04;;;;;;;7.57;2.97;;;;;;;0.66;100.00;96497.63;1029856;28;20281;-69
2023/01/31 00:57:34;;;;;;;6.22;3.25;;;;;;;0.62;100.00;96493.81;1029257;28;20084;-69
2023/01/31 00:58:05;;;;;;;7.30;3.10;;;;;;;0.59;100.00;96485.63;1038504;28;20032;-68
2023/01/31 00:58:35;;;;;;;9.45;3.25;;;;;;;0.57;100.00;96485.00;1042312;28;20455;-71
2023/01/31 00:59:07;;;;;;;7.13;3.20;;;;;;;0.63;100.00;96500.56;1038465;28;20032;-72
2023/01/31 00:59:37;;;;;;;5.56;3.22;;;;;;;0.68;100.00;96492.28;1038339;28;20088;-70
2023/01/31 01:00:09;;;;;;;8.70;3.38;;;;;;;0.69;100.00;96494.69;1038130;28;20095;-70
2023/01/31 01:00:42;;;;;;;5.68;3.17;;;;;;;0.72;100.00;96496.09;1038594;28;20030;-70
2023/01/31 01:01:18;;;;;;;6.70;3.50;;;;;;;0.70;100.00;96492.91;1039195;28;20769;-69
2023/01/31 01:01:48;;;;;;;8.13;2.97;;;;;;;0.65;100.00;96487.50;1042149;28;20640;-68
2023/01/31 01:02:19;;;;;;;6.90;3.03;;;;;;;0.70;100.00;96491.13;1035622;28;20268;-69
2023/01/31 01:02:49;;;;;;;9.00;3.47;;;;;;;0.69;100.00;96494.69;1034108;28;20034;-68
2023/01/31 01:03:20;;;;;;;6.05;3.30;;;;;;;0.70;100.00;96496.31;1034443;28;20022;-69
2023/01/31 01:03:50;;;;;;;6.22;2.88;;;;;;;0.73;100.00;96484.00;1042264;28;20036;-69
2023/01/31 01:04:21;;;;;;;8.57;3.00;;;;;;;0.68;100.00;96484.53;1042118;28;20048;-69
2023/01/31 01:04:51;;;;;;;5.80;3.20;;;;;;;0.74;100.00;96494.16;1038385;28;20093;-69
2023/01/31 01:05:22;;;;;;;6.05;2.95;;;;;;;0.70;100.00;96479.97;1030169;28;20100;-71
2023/01/31 01:05:55;;;;;;;5.60;3.67;;;;;;;0.68;100.00;96474.22;1038767;28;20014;-70
2023/01/31 01:06:26;;;;;;;7.85;3.30;;;;;;;0.74;100.00;96480.41;1042822;28;20263;-70
2023/01/31 01:06:56;;;;;;;7.93;3.53;;;;;;;0.70;100.00;96491.13;1041485;28;20021;-69
2023/01/31 01:07:27;;;;;;;5.93;3.05;;;;;;;0.70;100.00;96492.91;1037887;28;20014;-70
2023/01/31 01:07:57;;;;;;;6.32;3.22;;;;;;;0.62;100.00;96478.31;1034213;28;20428;-71
2023/01/31 01:08:28;;;;;;;10.82;3.45;;;;;;;0.67;100.00;96488.09;1037940;28;20025;-71
2023/01/31 01:08:58;;;;;;;7.80;3.80;;;;;;;0.70;100.00;96490.31;1034415;28;20010;-68
2023/01/31 01:09:31;;;;;;;9.90;3.45;;;;;;;0.70;100.00;96488.56;1025978;28;20062;-70
2023/01/31 01:10:06;;;;;;;6.93;3.05;;;;;;;0.67;100.00;96491.50;1030054;28;20669;-72
2023/01/31 01:10:36;;;;;;;9.43;3.70;;;;;;;0.61;100.00;96481.88;1042888;28;20021;-70
2023/01/31 01:11:09;;;;;;;9.48;3.10;;;;;;;0.63;100.00;96495.41;1042219;28;20311;-69
2023/01/31 01:11:42;;;;;;;4.90;2.90;;;;;;;0.65;100.00;96492.66;1047657;28;20016;-70
2023/01/31 01:12:12;;;;;;;5.65;3.03;;;;;;;0.65;100.00;96488.28;1045449;28;20933;-69
2023/01/31 01:12:43;;;;;;;5.55;3.17;;;;;;;0.60;100.00;96488.00;1046274;28;20258;-70
2023/01/31 01:13:13;;;;;;;6.30;2.92;;;;;;;0.65;100.00;96496.03;1046809;28;20523;-69
2023/01/31 01:13:44;;;;;;;7.20;3.33;;;;;;;0.65;100.00;96488.28;1042323;28;20048;-71
2023/01/31 01:14:15;;;;;;;6.53;3.67;;;;;;;0.59;100.00;96478.69;1038346;28;20024;-70
2023/01/31 01:14:45;;;;;;;10.20;3.33;;;;;;;0.61;100.00;96492.22;1033977;28;20009;-69
2023/01/31 01:15:16;;;;;;;7.85;3.50;;;;;;;0.64;100.00;96499.59;1038167;28;20014;-70
2023/01/31 01:15:46;;;;;;;7.03;2.97;;;;;;;0.65;100.00;96496.03;1038164;28;20434;-70
2023/01/31 01:16:19;;;;;;;7.18;3.25;;;;;;;0.65;100.00;96493.44;1038113;28;20526;-69
2023/01/31 01:16:49;;;;;;;5.15;3.17;;;;;;;0.64;100.00;96497.03;1029573;28;20033;-69
2023/01/31 01:17:20;;;;;;;6.82;3.53;;;;;;;0.64;100.00;96498.81;1034788;28;21065;-70
2023/01/31 01:17:50;;;;;;;8.95;3.80;;;;;;;0.62;100.00;96488.63;1030638;28;20046;-70
2023/01/31 01:18:21;;;;;;;4.93;3.08;;;;;;;0.62;100.00;96498.97;1034443;28;20853;-70
2023/01/31 01:18:53;;;;;;;9.20;3.13;;;;;;;0.64;100.00;96491.84;1037713;28;20030;-70
2023/01/31 01:19:24;;;;;;;8.27;2.67;;;;;;;0.66;100.00;96497.63;1033951;28;20018;-71
2023/01/31 01:19:54;;;;;;;6.38;2.97;;;;;;;0.62;100.00;96488.63;1034948;28;20453;-70
2023/01/31 01:20:25;;;;;;;5.68;3.47;;;;;;;0.60;100.00;96482.84;1038553;28;20024;-70
2023/01/31 01:20:55;;;;;;;6.90;3.08;;;;;;;0.66;100.00;96500.19;1027045;28;20512;-71
2023/01/31 01:21:27;;;;;;;6.32;3.40;;;;;;;0.58;100.00;96490.00;1034295;28;20028;-69
2023/01/31 01:21:57;;;;;;;7.32;2.90;;;;;;;0.65;100.00;96498.63;1030094;28;20028;-70
2023/01/31 01:22:28;;;;;;;6.22;3.05;;;;;;;0.64;100.00;96499.59;1032357;28;20276;-70
2023/01/31 01:22:59;;;;;;;8.27;3.15;;;;;;;0.64;100.00;96491.84;1038400;28;20021;-70
2023/01/31 01:23:29;;;;;;;4.38;2.95;;;;;;;0.64;100.00;96497.03;1042200;28;20255;-69
2023/01/31 01:24:00;;;;;;;4.45;2.90;;;;;;;0.63;100.00;96494.59;1042407;28;20075;-70
2023/01/31 01:24:31;;;;;;;5.65;3.28;;;;;;;0.63;100.00;96499.78;1038139;28;20018;-70
2023/01/31 01:25:01;;;;;;;7.50;3.40;;;;;;;0.62;100.00;96498.19;1034000;28;20261;-70
2023/01/31 01:25:41;;;;;;;5.20;2.90;;;;;;;0.62;100.00;96493.81;1034355;28;20026;-70
2023/01/31 01:26:19;;;;;;;7.18;3.15;;;;;;;0.62;100.00;96491.22;1039323;28;20018;-71
2023/01/31 01:26:49;;;;;;;5.70;3.30;;;;;;;0.64;100.00;96507.34;1037758;28;20290;-70
2023/01/31 01:27:20;;;;;;;7.47;2.95;;;;;;;0.60;100.00;96485.44;1040407;28;20311;-70
2023/01/31 01:27:50;;;;;;;5.82;2.72;;;;;;;0.68;100.00;96502.63;1037991;28;20049;-70
2023/01/31 01:28:21;;;;;;;7.85;3.67;;;;;;;0.69;100.00;96499.84;1034313;28;20703;-71
2023/01/31 01:28:52;;;;;;;7.07;3.40;;;;;;;0.59;100.00;96490.78;1038143;28;20021;-69
2023/01/31 01:29:22;;;;;;;6.53;3.35;;;;;;;0.64;100.00;96497.03;1038312;28;20021;-69
2023/01/31 01:29:56;;;;;;;7.20;3.38;;;;;;;0.61;100.00;96501.75;1042953;28;20027;-69
2023/01/31 01:30:26;;;;;;;6.63;3.10;;;;;;;0.61;100.00;96496.59;1046338;28;20768;-69
2023/01/31 01:30:57;;;;;;;7.53;3.47;;;;;;;0.54;100.00;96488.75;1047815;28;20766;-70
2023/01/31 01:31:30;;;;;;;7.78;3.05;;;;;;;0.51;100.00;96496.06;1050315;28;20058;-69
2023/01/31 01:32:04;;;;;;;7.80;3.13;;;;;;;0.53;100.00;96494.09;1046777;28;20095;-70
2023/01/31 01:32:34;;;;;;;8.20;3.53;;;;;;;0.57;100.00;96503.06;1037118;28;20303;-69
2023/01/31 01:33:04;;;;;;;6.68;3.13;;;;;;;0.50;100.00;96495.25;1033144;28;20319;-71
2023/01/31 01:33:35;;;;;;;5.47;3.30;;;;;;;0.53;100.00;96488.91;1035061;28;20666;-70
2023/01/31 01:34:08;;;;;;;8.38;2.92;;;;;;;0.55;100.00;96492.13;1037893;28;20022;-70
2023/01/31 01:34:38;;;;;;;9.23;3.08;;;;;;;0.58;100.00;96492.56;1034198;28;20108;-70
2023/01/31 01:35:09;;;;;;;6.53;3.13;;;;;;;0.57;100.00;96503.91;1025964;28;20402;-70
2023/01/31 01:35:39;;;;;;;10.13;3.58;;;;;;;0.56;100.00;96497.09;1026476;28;20015;-69
2023/01/31 01:36:12;;;;;;;8.85;3.30;;;;;;;0.50;100.00;96487.50;1033040;28;20431;-69
2023/01/31 01:36:42;;;;;;;5.50;3.15;;;;;;;0.45;100.00;96492.41;1041750;28;20572;-68
2023/01/31 01:37:18;;;;;;;6.90;3.50;;;;;;;0.52;100.00;96500.25;1042212;28;20276;-70
2023/01/31 01:37:49;;;;;;;9.30;3.55;;;;;;;0.49;100.00;96496.22;1042134;28;20421;-70
2023/01/31 01:38:20;;;;;;;9.27;3.40;;;;;;;0.47;100.00;96493.03;1047283;28;20255;-70
2023/01/31 01:38:50;;;;;;;6.80;3.10;;;;;;;0.47;100.00;96493.84;1051703;28;20031;-70
2023/01/31 01:39:21;;;;;;;5.35;3.10;;;;;;;0.43;100.00;96487.41;1049428;28;20028;-70
2023/01/31 01:39:52;;;;;;;9.63;3.58;;;;;;;0.43;100.00;96484.03;1041282;28;20021;-69
2023/01/31 01:40:22;;;;;;;12.00;3.63;;;;;;;0.44;100.00;96481.28;1037407;28;20097;-70
2023/01/31 01:40:53;;;;;;;4.82;2.75;;;;;;;0.37;100.00;96477.84;1038326;28;20025;-70
2023/01/31 01:41:23;;;;;;;8.23;3.40;;;;;;;0.38;100.00;96483.78;1042007;28;20753;-70
2023/01/31 01:41:54;;;;;;;6.57;3.78;;;;;;;0.43;100.00;96490.00;1042505;28;20023;-71
2023/01/31 01:42:24;;;;;;;9.00;3.30;;;;;;;0.38;100.00;96481.22;1046322;28;20544;-68
2023/01/31 01:42:55;;;;;;;6.30;3.03;;;;;;;0.42;100.00;96497.94;1044609;28;20021;-70
2023/01/31 01:43:47;;;;;;;6.63;3.10;;;;;;;0.40;100.00;96495.53;1042348;28;20017;-69
2023/01/31 01:44:45;;;;;;;7.86;3.06;;;;;;;0.43;100.00;96489.19;1043695;28;20375;-69
2023/01/31 01:45:16;;;;;;;6.90;2.66;;;;;;;0.45;100.00;96500.94;1042169;28;20594;-71
2023/01/31 01:45:46;;;;;;;8.57;3.10;;;;;;;0.40;100.00;96498.13;1038388;28;20036;-70
2023/01/31 01:46:39;;;;;;;4.72;2.85;;;;;;;0.41;100.00;96502.31;1038067;28;20014;-71
2023/01/31 01:47:49;;;;;;;6.42;3.28;;;;;;;0.37;100.00;96500.25;1038340;28;20072;-68
2023/01/31 01:48:19;;;;;;;7.28;3.14;;;;;;;0.37;100.00;96500.25;1029342;28;20023;-71
2023/01/31 01:48:52;;;;;;;6.47;2.65;;;;;;;0.35;100.00;96499.63;1028572;28;20058;-71
2023/01/31 01:49:28;;;;;;;7.34;3.30;;;;;;;0.37;100.00;96500.25;1037967;28;20214;-72
2023/01/31 01:50:02;;;;;;;5.90;2.94;;;;;;;0.28;100.00;96496.97;1034343;28;20034;-70
2023/01/31 01:50:35;;;;;;;9.78;3.52;;;;;;;0.32;100.00;96497.41;1039778;28;20021;-69
2023/01/31 01:51:06;;;;;;;7.28;3.76;;;;;;;0.34;100.00;96500.63;1031999;28;20034;-71
2023/01/31 01:51:36;;;;;;;9.48;3.17;;;;;;;0.30;100.00;96496.78;1041662;28;20013;-71
2023/01/31 01:52:09;;;;;;;7.15;3.50;;;;;;;0.26;100.00;96498.13;1041876;28;20037;-69
2023/01/31 01:52:55;;;;;;;9.82;3.38;;;;;;;0.28;100.00;96506.50;1034300;28;20741;-69
2023/01/31 01:53:26;;;;;;;9.16;3.80;;;;;;;0.23;100.00;96507.84;1025752;28;20163;-70
2023/01/31 01:53:59;;;;;;;7.38;3.74;;;;;;;0.17;100.00;96498.22;1030137;28;20138;-71
2023/01/31 01:54:35;;;;;;;6.26;3.10;;;;;;;0.14;100.00;96503.75;1037977;28;20025;-70
2023/01/31 01:55:17;;;;;;;5.86;3.32;;;;;;;0.15;100.00;96496.78;1038274;28;20017;-70
2023/01/31 01:55:49;;;;;;;8.74;3.90;;;;;;;0.16;100.00;96494.03;1033902;28;20029;-71
2023/01/31 01:56:28;;;;;;;6.58;3.40;;;;;;;0.11;100.00;96491.19;1036659;28;20024;-70
2023/01/31 01:57:00;;;;;;;9.16;3.46;;;;;;;0.13;100.00;96496.16;1036347;28;20034;-70
2023/01/31 01:57:34;;;;;;;6.88;3.26;;;;;;;0.09;100.00;96490.56;1037904;28;20029;-70
2023/01/31 01:58:08;;;;;;;6.34;3.60;;;;;;;0.09;100.00;96487.19;1030393;28;20712;-69
2023/01/31 01:58:42;;;;;;;9.08;4.06;;;;;;;0.10;100.00;96494.75;1035028;28;20202;-70
2023/01/31 01:59:15;;;;;;;10.62;4.04;;;;;;;0.08;100.00;96491.53;1034285;28;20033;-71
2023/01/31 01:59:49;;;;;;;6.92;3.92;;;;;;;0.08;100.00;96486.38;1043910;28;20083;-70
2023/01/31 02:00:24;;;;;;;11.44;3.62;;;;;;;0.11;100.00;96487.81;1034272;28;20028;-70
2023/01/31 02:00:55;;;;;;;7.36;3.48;;;;;;;0.10;100.00;96494.75;1038332;28;20018;-69
2023/01/31 02:01:28;;;;;;;11.57;4.10;;;;;;;0.05;100.00;96483.34;1033347;28;20026;-71
2023/01/31 02:01:58;;;;;;;8.46;3.30;;;;;;;0.07;100.00;96499.44;1038491;28;20033;-70
2023/01/31 02:02:29;;;;;;;5.60;3.00;;;;;;;0.00;100.00;96494.22;1042059;28;20410;-70
2023/01/31 02:02:59;;;;;;;5.60;3.63;;;;;;;0.03;100.00;96499.00;1042273;28;20028;-68
2023/01/31 02:03:30;;;;;;;9.40;3.58;;;;;;;0.06;100.00;96503.00;1030863;28;20014;-70
2023/01/31 02:04:01;;;;;;;6.95;3.60;;;;;;;0.08;100.00;96501.06;1039456;28;20029;-71
2023/01/31 02:04:35;;;;;;;5.94;3.16;;;;;;;0.13;100.00;96496.94;1039013;28;20021;-70
2023/01/31 02:05:06;;;;;;;4.10;2.94;;;;;;;0.14;100.00;96493.41;1042593;28;20048;-71
2023/01/31 02:05:42;;;;;;;5.90;3.53;;;;;;;0.09;100.00;96495.72;1039648;28;20036;-70
2023/01/31 02:06:13;;;;;;;5.60;2.96;;;;;;;0.17;100.00;96500.00;1039527;28;20041;-71
2023/01/31 02:06:44;;;;;;;9.50;3.47;;;;;;;0.13;100.00;96498.75;1039546;28;20048;-69
2023/01/31 02:07:14;;;;;;;8.02;3.38;;;;;;;0.12;100.00;96499.72;1031823;28;20014;-69
2023/01/31 02:07:45;;;;;;;9.30;3.55;;;;;;;0.10;100.00;96499.91;1041981;28;20013;-69
2023/01/31 02:08:16;;;;;;;12.07;3.53;;;;;;;0.05;100.00;96501.41;1037425;28;20022;-70
2023/01/31 02:08:47;;;;;;;7.26;3.04;;;;;;;-0.02;100.00;96498.75;1037744;28;20025;-70
2023/01/31 02:09:47;;;;;;;7.28;3.47;;;;;;;0.06;100.00;96514.13;1038223;28;20018;-69
2023/01/31 02:10:22;;;;;;;5.32;3.08;;;;;;;-0.11;100.00;96498.00;1041999;28;20024;-71
2023/01/31 02:11:11;;;;;;;8.74;3.20;;;;;;;-0.16;100.00;96490.03;1038405;28;20049;-68
2023/01/31 02:11:41;;;;;;;6.00;2.98;;;;;;;-0.01;100.00;96513.22;1034330;28;20058;-70
2023/01/31 02:12:12;;;;;;;11.30;4.13;;;;;;;-0.03;100.00;96517.78;1038363;28;20506;-68
2023/01/31 02:12:42;;;;;;;6.75;3.75;;;;;;;-0.02;100.00;96502.13;1036548;28;20022;-69
2023/01/31 02:13:13;;;;;;;8.48;3.30;;;;;;;0.04;100.00;96512.72;1036675;28;20041;-68
2023/01/31 02:13:44;;;;;;;6.82;3.65;;;;;;;0.01;100.00;96503.56;1029986;28;20018;-69
2023/01/31 02:14:15;;;;;;;9.10;3.66;;;;;;;0.02;100.00;96510.31;1038733;28;20017;-69
2023/01/31 02:14:45;;;;;;;6.50;3.70;;;;;;;-0.01;100.00;96511.44;1042065;28;20017;-69
2023/01/31 02:15:16;;;;;;;6.72;3.30;;;;;;;-0.06;100.00;96502.66;1033904;28;20018;-69
2023/01/31 02:15:47;;;;;;;10.40;3.67;;;;;;;0.07;100.00;96507.19;1030049;28;20030;-69
2023/01/31 02:16:17;;;;;;;10.10;3.60;;;;;;;0.09;100.00;96512.97;1025948;28;20061;-69
2023/01/31 02:16:48;;;;;;;6.47;3.50;;;;;;;0.12;100.00;96510.03;1024962;28;20035;-69
2023/01/31 02:17:18;;;;;;;11.60;3.20;;;;;;;0.08;100.00;96513.97;1030099;28;20475;-72
2023/01/31 02:17:49;;;;;;;4.80;2.95;;;;;;;0.05;100.00;96509.94;1034056;28;20101;-69
2023/01/31 02:18:19;;;;;;;9.70;3.45;;;;;;;0.05;100.00;96515.13;1046468;28;20024;-68
2023/01/31 02:18:50;;;;;;;5.20;3.80;;;;;;;0.05;100.00;96511.75;1034025;28;20025;-70
2023/01/31 02:19:37;;;;;;;9.95;3.85;;;;;;;0.05;100.00;96522.84;1037982;28;20057;-70
2023/01/31 02:20:40;;;;;;;9.12;3.58;;;;;;;0.04;100.00;96521.25;1034663;28;20026;-69
2023/01/31 02:21:42;;;;;;;6.50;3.10;;;;;;;0.01;100.00;96531.94;1041509;28;20071;-69
2023/01/31 02:22:14;;;;;;;7.44;3.50;;;;;;;-0.02;100.00;96527.13;1042896;28;20028;-69
2023/01/31 02:23:21;;;;;;;8.24;3.54;;;;;;;0.04;100.00;96529.00;1039299;28;20043;-69
2023/01/31 02:23:58;;;;;;;10.48;3.46;;;;;;;0.06;100.00;96529.59;1041596;28;20017;-70
2023/01/31 02:24:54;;;;;;;6.86;2.88;;;;;;;0.03;100.00;96529.16;1045465;28;20079;-71
2023/01/31 02:25:47;;;;;;;8.62;3.74;;;;;;;0.07;100.00;96530.41;1039479;28;20024;-69
2023/01/31 02:26:36;;;;;;;10.60;3.20;;;;;;;0.09;100.00;96531.84;1034820;28;20018;-69
2023/01/31 02:27:31;;;;;;;8.84;3.32;;;;;;;0.05;100.00;96528.00;1039599;28;20036;-69
2023/01/31 02:28:20;;;;;;;14.40;4.18;;;;;;;0.02;100.00;96533.53;1039166;28;20440;-69
2023/01/31 02:29:46;;;;;;;8.30;2.90;;;;;;;0.10;100.00;96530.88;1042126;28;20021;-69
2023/01/31 02:30:37;;;;;;;6.84;3.20;;;;;;;0.10;100.00;96528.31;1023457;29;20038;-71
2023/01/31 02:31:30;;;;;;;8.08;2.86;;;;;;;0.11;100.00;96524.72;1031015;28;20455;-69
2023/01/31 02:32:37;;;;;;;5.38;2.68;;;;;;;0.18;100.00;96532.56;1044145;28;20112;-69
2023/01/31 02:33:24;;;;;;;10.08;3.50;;;;;;;0.17;100.00;96534.34;1047578;28;20139;-69
2023/01/31 02:34:07;;;;;;;6.38;2.74;;;;;;;0.19;100.00;96529.78;1047684;28;20518;-70
2023/01/31 02:34:41;;;;;;;5.42;3.30;;;;;;;0.19;100.00;96532.38;1053901;28;20032;-73
2023/01/31 02:35:39;;;;;;;7.30;3.26;;;;;;;0.23;100.00;96530.25;1056321;28;20427;-69
2023/01/31 02:36:42;;;;;;;8.80;3.10;;;;;;;0.18;100.00;96530.78;1048089;28;20500;-69
2023/01/31 02:37:17;;;;;;;6.22;3.66;;;;;;;0.18;100.00;96528.19;1036248;28;20026;-71
2023/01/31 02:38:12;;;;;;;4.02;2.92;;;;;;;0.18;100.00;96538.53;1046127;28;20017;-70